Check out our new BloomSky Weather System.

Active alerts

Galveston, TX
  Details for Galveston, TX Coastal Flood Advisory  +1 additional alert


Thunder radar  blitzortung!


Rain radar more information rain snow radar


Visit our other weather sites:

Template documentation
and downloads

And another site



Weather Underground History page Text

Daily Summary for February 5, 2018 Units:  Both    English   Metric
« Previous Day
Next Day »
Daily Weekly Monthly Yearly Custom
  High: Low: Average:
Temperature: TemperatureF °F /  -17.8 °C 49.3 °F /  9.6 °C 55.9 °F /  13.3 °C
Dew Point: DewpointF °F /  -17.8 °C 46.4 °F /  8 °C 52.6 °F /  11.4 °C
Humidity: Humidity % 78 % 89 %
Wind Speed: WindSpeedMPH mph /  0 km/h - 1.7 mph /  2.7 km/h
Wind Gust: WindSpeedGustMPH mph /  0 km/h - -
Wind:- - SSE
Pressure: PressureIn in /  0 hPa 30.04 in /  1017.2 hPa -
Precipitation: 0.00 in /  0 mm    
Historical Graphs
 
 
Tabular Data for February 5, 2018
Time Temperature Dew Point Pressure Wind Wind Speed Wind Gust Humidity Rainfall Rate (Hourly)
TemperatureF °F /  -17.8 °C DewpointF °F /  -17.8 °C PressureIn in /  0 hPa Calm     Humidity % HourlyPrecipIn in /  0 mm
00:00 54.9 °F /  12.7 °C 54.0 °F /  12.2 °C 30.13 in /  1020.2 hPa NNW 1.0 mph /  1.6 km/h 2.0 mph /  3.2 km/h 97 % 0.00 in /  0 mm
00:05 54.9 °F /  12.7 °C 54.0 °F /  12.2 °C 30.13 in /  1020.2 hPa Calm   2.0 mph /  3.2 km/h 97 % 0.00 in /  0 mm
00:10 55.0 °F /  12.8 °C 54.1 °F /  12.3 °C 30.13 in /  1020.2 hPa NNE 1.0 mph /  1.6 km/h 3.0 mph /  4.8 km/h 97 % 0.00 in /  0 mm
00:15 55.0 °F /  12.8 °C 54.1 °F /  12.3 °C 30.13 in /  1020.2 hPa Calm   3.0 mph /  4.8 km/h 97 % 0.00 in /  0 mm
00:20 55.0 °F /  12.8 °C 54.1 °F /  12.3 °C 30.13 in /  1020.2 hPa NW 1.0 mph /  1.6 km/h 3.0 mph /  4.8 km/h 97 % 0.00 in /  0 mm
00:25 55.2 °F /  12.9 °C 54.3 °F /  12.4 °C 30.13 in /  1020.2 hPa North 3.0 mph /  4.8 km/h 3.0 mph /  4.8 km/h 97 % 0.00 in /  0 mm
00:30 55.2 °F /  12.9 °C 54.3 °F /  12.4 °C 30.13 in /  1020.2 hPa Calm   3.0 mph /  4.8 km/h 97 % 0.00 in /  0 mm
00:35 55.2 °F /  12.9 °C 54.3 °F /  12.4 °C 30.13 in /  1020.2 hPa NNW 1.0 mph /  1.6 km/h 3.0 mph /  4.8 km/h 97 % 0.00 in /  0 mm
00:40 55.2 °F /  12.9 °C 54.3 °F /  12.4 °C 30.13 in /  1020.2 hPa NNW 1.0 mph /  1.6 km/h 3.0 mph /  4.8 km/h 97 % 0.00 in /  0 mm
00:45 55.4 °F /  13 °C 54.5 °F /  12.5 °C 30.13 in /  1020.2 hPa NNW 1.0 mph /  1.6 km/h 3.0 mph /  4.8 km/h 97 % 0.00 in /  0 mm
00:50 55.4 °F /  13 °C 54.5 °F /  12.5 °C 30.13 in /  1020.2 hPa Calm   5.0 mph /  8 km/h 97 % 0.00 in /  0 mm
00:55 55.6 °F /  13.1 °C 54.7 °F /  12.6 °C 30.13 in /  1020.2 hPa Calm   6.0 mph /  9.7 km/h 97 % 0.00 in /  0 mm
01:00 55.6 °F /  13.1 °C 54.7 °F /  12.6 °C 30.13 in /  1020.2 hPa Calm   6.0 mph /  9.7 km/h 97 % 0.00 in /  0 mm
01:05 55.6 °F /  13.1 °C 54.7 °F /  12.6 °C 30.13 in /  1020.2 hPa Calm   6.0 mph /  9.7 km/h 97 % 0.00 in /  0 mm
01:10 55.8 °F /  13.2 °C 54.7 °F /  12.6 °C 30.13 in /  1020.2 hPa Calm   6.0 mph /  9.7 km/h 96 % 0.00 in /  0 mm
01:15 55.8 °F /  13.2 °C 54.7 °F /  12.6 °C 30.13 in /  1020.2 hPa Calm   5.0 mph /  8 km/h 96 % 0.00 in /  0 mm
01:20 55.8 °F /  13.2 °C 54.7 °F /  12.6 °C 30.13 in /  1020.2 hPa Calm   5.0 mph /  8 km/h 96 % 0.00 in /  0 mm
01:25 55.8 °F /  13.2 °C 54.7 °F /  12.6 °C 30.13 in /  1020.2 hPa North 5.0 mph /  8 km/h 5.0 mph /  8 km/h 96 % 0.00 in /  0 mm
01:30 55.8 °F /  13.2 °C 54.3 °F /  12.4 °C 30.13 in /  1020.2 hPa NW 2.0 mph /  3.2 km/h 8.0 mph /  12.9 km/h 95 % 0.00 in /  0 mm
01:35 55.8 °F /  13.2 °C 54.3 °F /  12.4 °C 30.13 in /  1020.2 hPa North 3.0 mph /  4.8 km/h 8.0 mph /  12.9 km/h 95 % 0.00 in /  0 mm
01:40 55.8 °F /  13.2 °C 54.3 °F /  12.4 °C 30.13 in /  1020.2 hPa Calm   8.0 mph /  12.9 km/h 95 % 0.00 in /  0 mm
01:45 55.8 °F /  13.2 °C 54.1 °F /  12.3 °C 30.13 in /  1020.2 hPa North 1.0 mph /  1.6 km/h 6.0 mph /  9.7 km/h 94 % 0.00 in /  0 mm
01:50 55.8 °F /  13.2 °C 54.1 °F /  12.3 °C 30.13 in /  1020.2 hPa NNE 1.0 mph /  1.6 km/h 6.0 mph /  9.7 km/h 94 % 0.00 in /  0 mm
01:55 55.8 °F /  13.2 °C 54.1 °F /  12.3 °C 30.12 in /  1019.9 hPa NE 1.0 mph /  1.6 km/h 7.0 mph /  11.3 km/h 94 % 0.00 in /  0 mm
02:00 55.6 °F /  13.1 °C 54.0 °F /  12.2 °C 30.12 in /  1019.9 hPa Calm   7.0 mph /  11.3 km/h 94 % 0.00 in /  0 mm
02:05 55.6 °F /  13.1 °C 54.0 °F /  12.2 °C 30.12 in /  1019.9 hPa Calm   7.0 mph /  11.3 km/h 94 % 0.00 in /  0 mm
02:10 55.6 °F /  13.1 °C 54.0 °F /  12.2 °C 30.12 in /  1019.9 hPa Calm   6.0 mph /  9.7 km/h 94 % 0.00 in /  0 mm
02:15 55.4 °F /  13 °C 53.8 °F /  12.1 °C 30.12 in /  1019.9 hPa North 2.0 mph /  3.2 km/h 6.0 mph /  9.7 km/h 94 % 0.00 in /  0 mm
02:20 55.2 °F /  12.9 °C 53.6 °F /  12 °C 30.12 in /  1019.9 hPa NNW 2.0 mph /  3.2 km/h 6.0 mph /  9.7 km/h 94 % 0.00 in /  0 mm
02:25 55.2 °F /  12.9 °C 53.6 °F /  12 °C 30.12 in /  1019.9 hPa ENE 1.0 mph /  1.6 km/h 6.0 mph /  9.7 km/h 94 % 0.00 in /  0 mm
02:30 55.2 °F /  12.9 °C 53.6 °F /  12 °C 30.12 in /  1019.9 hPa NNW 3.0 mph /  4.8 km/h 6.0 mph /  9.7 km/h 94 % 0.00 in /  0 mm
02:35 55.0 °F /  12.8 °C 53.4 °F /  11.9 °C 30.12 in /  1019.9 hPa NW 2.0 mph /  3.2 km/h 6.0 mph /  9.7 km/h 94 % 0.00 in /  0 mm
02:40 54.9 °F /  12.7 °C 53.2 °F /  11.8 °C 30.12 in /  1019.9 hPa NNW 3.0 mph /  4.8 km/h 8.0 mph /  12.9 km/h 94 % 0.00 in /  0 mm
02:45 54.7 °F /  12.6 °C 53.1 °F /  11.7 °C 30.12 in /  1019.9 hPa North 5.0 mph /  8 km/h 8.0 mph /  12.9 km/h 94 % 0.00 in /  0 mm
02:51 54.3 °F /  12.4 °C 52.9 °F /  11.6 °C 30.12 in /  1019.9 hPa Calm   8.0 mph /  12.9 km/h 95 % 0.00 in /  0 mm
02:56 54.1 °F /  12.3 °C 52.7 °F /  11.5 °C 30.12 in /  1019.9 hPa NW 5.0 mph /  8 km/h 8.0 mph /  12.9 km/h 95 % 0.00 in /  0 mm
03:01 54.0 °F /  12.2 °C 52.5 °F /  11.4 °C 30.12 in /  1019.9 hPa North 4.0 mph /  6.4 km/h 8.0 mph /  12.9 km/h 95 % 0.00 in /  0 mm
03:06 53.8 °F /  12.1 °C 52.3 °F /  11.3 °C 30.12 in /  1019.9 hPa Calm   8.0 mph /  12.9 km/h 95 % 0.00 in /  0 mm
03:11 53.8 °F /  12.1 °C 52.3 °F /  11.3 °C 30.12 in /  1019.9 hPa ENE 1.0 mph /  1.6 km/h 8.0 mph /  12.9 km/h 95 % 0.00 in /  0 mm
03:16 53.6 °F /  12 °C 52.2 °F /  11.2 °C 30.13 in /  1020.2 hPa ENE 2.0 mph /  3.2 km/h 8.0 mph /  12.9 km/h 95 % 0.00 in /  0 mm
03:21 53.4 °F /  11.9 °C 52.0 °F /  11.1 °C 30.12 in /  1019.9 hPa Calm   8.0 mph /  12.9 km/h 95 % 0.00 in /  0 mm
03:26 53.2 °F /  11.8 °C 51.8 °F /  11 °C 30.12 in /  1019.9 hPa NNE 5.0 mph /  8 km/h 8.0 mph /  12.9 km/h 95 % 0.00 in /  0 mm
03:31 53.1 °F /  11.7 °C 51.6 °F /  10.9 °C 30.12 in /  1019.9 hPa ESE 2.0 mph /  3.2 km/h 8.0 mph /  12.9 km/h 95 % 0.00 in /  0 mm
03:36 53.1 °F /  11.7 °C 51.6 °F /  10.9 °C 30.12 in /  1019.9 hPa North 1.0 mph /  1.6 km/h 7.0 mph /  11.3 km/h 95 % 0.00 in /  0 mm
03:41 52.7 °F /  11.5 °C 51.1 °F /  10.6 °C 30.12 in /  1019.9 hPa WNW 1.0 mph /  1.6 km/h 7.0 mph /  11.3 km/h 94 % 0.00 in /  0 mm
03:46 52.5 °F /  11.4 °C 50.9 °F /  10.5 °C 30.12 in /  1019.9 hPa NW 1.0 mph /  1.6 km/h 8.0 mph /  12.9 km/h 94 % 0.00 in /  0 mm
03:51 52.3 °F /  11.3 °C 50.4 °F /  10.2 °C 30.12 in /  1019.9 hPa Calm   9.0 mph /  14.5 km/h 93 % 0.00 in /  0 mm
03:56 52.2 °F /  11.2 °C 50.2 °F /  10.1 °C 30.12 in /  1019.9 hPa Calm   9.0 mph /  14.5 km/h 93 % 0.00 in /  0 mm
04:01 52.0 °F /  11.1 °C 50.0 °F /  10 °C 30.12 in /  1019.9 hPa North 3.0 mph /  4.8 km/h 9.0 mph /  14.5 km/h 93 % 0.00 in /  0 mm
04:06 51.8 °F /  11 °C 49.6 °F /  9.8 °C 30.12 in /  1019.9 hPa Calm   7.0 mph /  11.3 km/h 92 % 0.00 in /  0 mm
04:11 51.6 °F /  10.9 °C 49.1 °F /  9.5 °C 30.12 in /  1019.9 hPa NNW 2.0 mph /  3.2 km/h 8.0 mph /  12.9 km/h 91 % 0.00 in /  0 mm
04:16 51.4 °F /  10.8 °C 48.9 °F /  9.4 °C 30.12 in /  1019.9 hPa NNW 3.0 mph /  4.8 km/h 8.0 mph /  12.9 km/h 91 % 0.00 in /  0 mm
04:21 51.4 °F /  10.8 °C 48.9 °F /  9.4 °C 30.12 in /  1019.9 hPa NNE 2.0 mph /  3.2 km/h 8.0 mph /  12.9 km/h 91 % 0.00 in /  0 mm
04:26 51.3 °F /  10.7 °C 48.7 °F /  9.3 °C 30.12 in /  1019.9 hPa NNW 4.0 mph /  6.4 km/h 8.0 mph /  12.9 km/h 91 % 0.00 in /  0 mm
04:31 51.3 °F /  10.7 °C 48.7 °F /  9.3 °C 30.12 in /  1019.9 hPa NE 3.0 mph /  4.8 km/h 6.0 mph /  9.7 km/h 91 % 0.00 in /  0 mm
04:36 51.1 °F /  10.6 °C 48.6 °F /  9.2 °C 30.12 in /  1019.9 hPa Calm   6.0 mph /  9.7 km/h 91 % 0.00 in /  0 mm
04:41 50.9 °F /  10.5 °C 48.4 °F /  9.1 °C 30.12 in /  1019.9 hPa North 1.0 mph /  1.6 km/h 6.0 mph /  9.7 km/h 91 % 0.00 in /  0 mm
04:46 50.9 °F /  10.5 °C 48.4 °F /  9.1 °C 30.12 in /  1019.9 hPa Calm   6.0 mph /  9.7 km/h 91 % 0.00 in /  0 mm
04:51 50.7 °F /  10.4 °C 48.2 °F /  9 °C 30.12 in /  1019.9 hPa NNE 2.0 mph /  3.2 km/h 5.0 mph /  8 km/h 91 % 0.00 in /  0 mm
04:56 50.7 °F /  10.4 °C 48.2 °F /  9 °C 30.12 in /  1019.9 hPa NNW 3.0 mph /  4.8 km/h 5.0 mph /  8 km/h 91 % 0.00 in /  0 mm
05:01 50.5 °F /  10.3 °C 48.0 °F /  8.9 °C 30.13 in /  1020.2 hPa NNW 1.0 mph /  1.6 km/h 5.0 mph /  8 km/h 91 % 0.00 in /  0 mm
05:06 50.5 °F /  10.3 °C 48.0 °F /  8.9 °C 30.13 in /  1020.2 hPa NW 1.0 mph /  1.6 km/h 5.0 mph /  8 km/h 91 % 0.00 in /  0 mm
05:11 50.5 °F /  10.3 °C 48.0 °F /  8.9 °C 30.13 in /  1020.2 hPa WNW 1.0 mph /  1.6 km/h 7.0 mph /  11.3 km/h 91 % 0.00 in /  0 mm
05:16 50.4 °F /  10.2 °C 47.8 °F /  8.8 °C 30.13 in /  1020.2 hPa NW 1.0 mph /  1.6 km/h 7.0 mph /  11.3 km/h 91 % 0.00 in /  0 mm
05:21 50.4 °F /  10.2 °C 47.8 °F /  8.8 °C 30.14 in /  1020.5 hPa Calm   7.0 mph /  11.3 km/h 91 % 0.00 in /  0 mm
05:26 50.2 °F /  10.1 °C 47.3 °F /  8.5 °C 30.14 in /  1020.5 hPa NW 2.0 mph /  3.2 km/h 6.0 mph /  9.7 km/h 90 % 0.00 in /  0 mm
05:31 50.2 °F /  10.1 °C 47.3 °F /  8.5 °C 30.14 in /  1020.5 hPa NW 4.0 mph /  6.4 km/h 6.0 mph /  9.7 km/h 90 % 0.00 in /  0 mm
05:36 50.0 °F /  10 °C 47.1 °F /  8.4 °C 30.14 in /  1020.5 hPa Calm   8.0 mph /  12.9 km/h 90 % 0.00 in /  0 mm
05:41 49.8 °F /  9.9 °C 46.9 °F /  8.3 °C 30.14 in /  1020.5 hPa NNW 1.0 mph /  1.6 km/h 8.0 mph /  12.9 km/h 90 % 0.00 in /  0 mm
05:46 49.8 °F /  9.9 °C 46.9 °F /  8.3 °C 30.14 in /  1020.5 hPa NNW 2.0 mph /  3.2 km/h 8.0 mph /  12.9 km/h 90 % 0.00 in /  0 mm
05:51 49.8 °F /  9.9 °C 46.9 °F /  8.3 °C 30.14 in /  1020.5 hPa NNW 2.0 mph /  3.2 km/h 6.0 mph /  9.7 km/h 90 % 0.00 in /  0 mm
05:56 49.6 °F /  9.8 °C 46.8 °F /  8.2 °C 30.15 in /  1020.9 hPa NNW 1.0 mph /  1.6 km/h 7.0 mph /  11.3 km/h 90 % 0.00 in /  0 mm
06:01 49.6 °F /  9.8 °C 46.8 °F /  8.2 °C 30.15 in /  1020.9 hPa NNW 5.0 mph /  8 km/h 7.0 mph /  11.3 km/h 90 % 0.00 in /  0 mm
06:06 49.6 °F /  9.8 °C 46.8 °F /  8.2 °C 30.15 in /  1020.9 hPa North 3.0 mph /  4.8 km/h 7.0 mph /  11.3 km/h 90 % 0.00 in /  0 mm
06:11 49.6 °F /  9.8 °C 47.1 °F /  8.4 °C 30.16 in /  1021.2 hPa Calm   6.0 mph /  9.7 km/h 91 % 0.00 in /  0 mm
06:16 49.5 °F /  9.7 °C 46.6 °F /  8.1 °C 30.16 in /  1021.2 hPa North 2.0 mph /  3.2 km/h 6.0 mph /  9.7 km/h 90 % 0.00 in /  0 mm
06:21 49.5 °F /  9.7 °C 46.6 °F /  8.1 °C 30.16 in /  1021.2 hPa NE 5.0 mph /  8 km/h 5.0 mph /  8 km/h 90 % 0.00 in /  0 mm
06:26 49.5 °F /  9.7 °C 46.6 °F /  8.1 °C 30.16 in /  1021.2 hPa North 1.0 mph /  1.6 km/h 7.0 mph /  11.3 km/h 90 % 0.00 in /  0 mm
06:31 49.5 °F /  9.7 °C 46.6 °F /  8.1 °C 30.16 in /  1021.2 hPa Calm   7.0 mph /  11.3 km/h 90 % 0.00 in /  0 mm
06:36 49.5 °F /  9.7 °C 46.6 °F /  8.1 °C 30.16 in /  1021.2 hPa NW 1.0 mph /  1.6 km/h 7.0 mph /  11.3 km/h 90 % 0.00 in /  0 mm
06:41 49.5 °F /  9.7 °C 46.6 °F /  8.1 °C 30.17 in /  1021.6 hPa NW 1.0 mph /  1.6 km/h 5.0 mph /  8 km/h 90 % 0.00 in /  0 mm
06:46 49.3 °F /  9.6 °C 46.4 °F /  8 °C 30.17 in /  1021.6 hPa Calm   6.0 mph /  9.7 km/h 90 % 0.00 in /  0 mm
06:51 49.3 °F /  9.6 °C 46.4 °F /  8 °C 30.16 in /  1021.2 hPa Calm   6.0 mph /  9.7 km/h 90 % 0.00 in /  0 mm
06:56 49.5 °F /  9.7 °C 46.6 °F /  8.1 °C 30.16 in /  1021.2 hPa NNE 2.0 mph /  3.2 km/h 6.0 mph /  9.7 km/h 90 % 0.00 in /  0 mm
07:01 49.3 °F /  9.6 °C 46.4 °F /  8 °C 30.16 in /  1021.2 hPa NNW 3.0 mph /  4.8 km/h 4.0 mph /  6.4 km/h 90 % 0.00 in /  0 mm
07:06 49.3 °F /  9.6 °C 46.4 °F /  8 °C 30.17 in /  1021.6 hPa NW 1.0 mph /  1.6 km/h 4.0 mph /  6.4 km/h 90 % 0.00 in /  0 mm
07:11 49.3 °F /  9.6 °C 46.8 °F /  8.2 °C 30.17 in /  1021.6 hPa NNW 1.0 mph /  1.6 km/h 4.0 mph /  6.4 km/h 91 % 0.00 in /  0 mm
07:16 49.3 °F /  9.6 °C 46.8 °F /  8.2 °C 30.17 in /  1021.6 hPa NNW 1.0 mph /  1.6 km/h 4.0 mph /  6.4 km/h 91 % 0.00 in /  0 mm
07:21 49.3 °F /  9.6 °C 46.8 °F /  8.2 °C 30.17 in /  1021.6 hPa Calm   5.0 mph /  8 km/h 91 % 0.00 in /  0 mm
07:26 49.3 °F /  9.6 °C 46.8 °F /  8.2 °C 30.17 in /  1021.6 hPa NNW 2.0 mph /  3.2 km/h 5.0 mph /  8 km/h 91 % 0.00 in /  0 mm
07:31 49.5 °F /  9.7 °C 46.9 °F /  8.3 °C 30.17 in /  1021.6 hPa NE 2.0 mph /  3.2 km/h 6.0 mph /  9.7 km/h 91 % 0.00 in /  0 mm
07:36 49.5 °F /  9.7 °C 46.9 °F /  8.3 °C 30.17 in /  1021.6 hPa NW 4.0 mph /  6.4 km/h 6.0 mph /  9.7 km/h 91 % 0.00 in /  0 mm
07:41 49.5 °F /  9.7 °C 46.9 °F /  8.3 °C 30.17 in /  1021.6 hPa Calm   6.0 mph /  9.7 km/h 91 % 0.00 in /  0 mm
07:46 49.5 °F /  9.7 °C 46.9 °F /  8.3 °C 30.17 in /  1021.6 hPa NNE 1.0 mph /  1.6 km/h 5.0 mph /  8 km/h 91 % 0.00 in /  0 mm
07:51 49.6 °F /  9.8 °C 47.1 °F /  8.4 °C 30.18 in /  1021.9 hPa NNW 2.0 mph /  3.2 km/h 5.0 mph /  8 km/h 91 % 0.00 in /  0 mm
07:56 49.6 °F /  9.8 °C 47.1 °F /  8.4 °C 30.18 in /  1021.9 hPa Calm   4.0 mph /  6.4 km/h 91 % 0.00 in /  0 mm
08:01 49.6 °F /  9.8 °C 47.1 °F /  8.4 °C 30.18 in /  1021.9 hPa Calm   4.0 mph /  6.4 km/h 91 % 0.00 in /  0 mm
08:06 49.6 °F /  9.8 °C 47.1 °F /  8.4 °C 30.17 in /  1021.6 hPa NW 1.0 mph /  1.6 km/h 4.0 mph /  6.4 km/h 91 % 0.00 in /  0 mm
08:11 49.8 °F /  9.9 °C 47.3 °F /  8.5 °C 30.17 in /  1021.6 hPa NW 2.0 mph /  3.2 km/h 4.0 mph /  6.4 km/h 91 % 0.00 in /  0 mm
08:16 49.8 °F /  9.9 °C 47.3 °F /  8.5 °C 30.17 in /  1021.6 hPa NE 1.0 mph /  1.6 km/h 7.0 mph /  11.3 km/h 91 % 0.00 in /  0 mm
08:21 49.8 °F /  9.9 °C 47.3 °F /  8.5 °C 30.18 in /  1021.9 hPa NW 2.0 mph /  3.2 km/h 8.0 mph /  12.9 km/h 91 % 0.00 in /  0 mm
08:26 49.8 °F /  9.9 °C 47.3 °F /  8.5 °C 30.18 in /  1021.9 hPa ENE 1.0 mph /  1.6 km/h 8.0 mph /  12.9 km/h 91 % 0.00 in /  0 mm
08:31 50.0 °F /  10 °C 47.8 °F /  8.8 °C 30.18 in /  1021.9 hPa NE 2.0 mph /  3.2 km/h 8.0 mph /  12.9 km/h 92 % 0.00 in /  0 mm
08:36 50.2 °F /  10.1 °C 48.0 °F /  8.9 °C 30.18 in /  1021.9 hPa Calm   5.0 mph /  8 km/h 92 % 0.00 in /  0 mm
08:41 50.4 °F /  10.2 °C 47.8 °F /  8.8 °C 30.18 in /  1021.9 hPa NNE 1.0 mph /  1.6 km/h 5.0 mph /  8 km/h 91 % 0.00 in /  0 mm
08:46 50.5 °F /  10.3 °C 48.0 °F /  8.9 °C 30.18 in /  1021.9 hPa NW 1.0 mph /  1.6 km/h 5.0 mph /  8 km/h 91 % 0.00 in /  0 mm
08:51 50.7 °F /  10.4 °C 48.2 °F /  9 °C 30.18 in /  1021.9 hPa Calm   4.0 mph /  6.4 km/h 91 % 0.00 in /  0 mm
08:56 50.9 °F /  10.5 °C 48.4 °F /  9.1 °C 30.18 in /  1021.9 hPa North 1.0 mph /  1.6 km/h 4.0 mph /  6.4 km/h 91 % 0.00 in /  0 mm
09:01 51.4 °F /  10.8 °C 48.9 °F /  9.4 °C 30.18 in /  1021.9 hPa Calm   4.0 mph /  6.4 km/h 91 % 0.00 in /  0 mm
09:06 52.0 °F /  11.1 °C 49.5 °F /  9.7 °C 30.18 in /  1021.9 hPa Calm   4.0 mph /  6.4 km/h 91 % 0.00 in /  0 mm
09:11 52.5 °F /  11.4 °C 49.5 °F /  9.7 °C 30.18 in /  1021.9 hPa Calm   4.0 mph /  6.4 km/h 89 % 0.00 in /  0 mm
09:16 53.2 °F /  11.8 °C 50.0 °F /  10 °C 30.18 in /  1021.9 hPa NNE 2.0 mph /  3.2 km/h 5.0 mph /  8 km/h 89 % 0.00 in /  0 mm
09:21 53.4 °F /  11.9 °C 49.6 °F /  9.8 °C 30.18 in /  1021.9 hPa NNE 3.0 mph /  4.8 km/h 7.0 mph /  11.3 km/h 87 % 0.00 in /  0 mm
09:26 53.6 °F /  12 °C 49.8 °F /  9.9 °C 30.18 in /  1021.9 hPa Calm   7.0 mph /  11.3 km/h 87 % 0.00 in /  0 mm
09:31 54.0 °F /  12.2 °C 50.2 °F /  10.1 °C 30.18 in /  1021.9 hPa NNE 4.0 mph /  6.4 km/h 7.0 mph /  11.3 km/h 87 % 0.00 in /  0 mm
09:36 54.1 °F /  12.3 °C 50.0 °F /  10 °C 30.18 in /  1021.9 hPa NW 1.0 mph /  1.6 km/h 6.0 mph /  9.7 km/h 86 % 0.00 in /  0 mm
09:41 54.1 °F /  12.3 °C 50.0 °F /  10 °C 30.17 in /  1021.6 hPa NE 1.0 mph /  1.6 km/h 5.0 mph /  8 km/h 86 % 0.00 in /  0 mm
09:46 54.3 °F /  12.4 °C 50.2 °F /  10.1 °C 30.17 in /  1021.6 hPa ESE 3.0 mph /  4.8 km/h 4.0 mph /  6.4 km/h 86 % 0.00 in /  0 mm
09:51 54.7 °F /  12.6 °C 50.5 °F /  10.3 °C 30.17 in /  1021.6 hPa Calm   5.0 mph /  8 km/h 86 % 0.00 in /  0 mm
09:56 55.2 °F /  12.9 °C 50.7 °F /  10.4 °C 30.17 in /  1021.6 hPa Calm   5.0 mph /  8 km/h 85 % 0.00 in /  0 mm
10:01 55.6 °F /  13.1 °C 50.9 °F /  10.5 °C 30.17 in /  1021.6 hPa East 1.0 mph /  1.6 km/h 5.0 mph /  8 km/h 84 % 0.00 in /  0 mm
10:06 55.6 °F /  13.1 °C 50.5 °F /  10.3 °C 30.17 in /  1021.6 hPa NNW 1.0 mph /  1.6 km/h 6.0 mph /  9.7 km/h 83 % 0.00 in /  0 mm
10:11 55.8 °F /  13.2 °C 50.7 °F /  10.4 °C 30.17 in /  1021.6 hPa ENE 1.0 mph /  1.6 km/h 6.0 mph /  9.7 km/h 83 % 0.00 in /  0 mm
10:16 56.5 °F /  13.6 °C 51.6 °F /  10.9 °C 30.17 in /  1021.6 hPa ENE 1.0 mph /  1.6 km/h 6.0 mph /  9.7 km/h 84 % 0.00 in /  0 mm
10:21 56.8 °F /  13.8 °C 51.1 °F /  10.6 °C 30.17 in /  1021.6 hPa East 5.0 mph /  8 km/h 6.0 mph /  9.7 km/h 81 % 0.00 in /  0 mm
10:26 57.4 °F /  14.1 °C 52.0 °F /  11.1 °C 30.17 in /  1021.6 hPa ESE 2.0 mph /  3.2 km/h 7.0 mph /  11.3 km/h 82 % 0.00 in /  0 mm
10:31 57.7 °F /  14.3 °C 51.3 °F /  10.7 °C 30.17 in /  1021.6 hPa SE 2.0 mph /  3.2 km/h 7.0 mph /  11.3 km/h 79 % 0.00 in /  0 mm
10:36 57.6 °F /  14.2 °C 50.7 °F /  10.4 °C 30.16 in /  1021.2 hPa East 2.0 mph /  3.2 km/h 7.0 mph /  11.3 km/h 78 % 0.00 in /  0 mm
10:41 57.6 °F /  14.2 °C 51.4 °F /  10.8 °C 30.16 in /  1021.2 hPa Calm   10.0 mph /  16.1 km/h 80 % 0.00 in /  0 mm
10:46 57.7 °F /  14.3 °C 51.3 °F /  10.7 °C 30.16 in /  1021.2 hPa SSE 2.0 mph /  3.2 km/h 10.0 mph /  16.1 km/h 79 % 0.00 in /  0 mm
10:51 57.7 °F /  14.3 °C 51.3 °F /  10.7 °C 30.16 in /  1021.2 hPa SSE 5.0 mph /  8 km/h 10.0 mph /  16.1 km/h 79 % 0.00 in /  0 mm
10:56 57.9 °F /  14.4 °C 51.4 °F /  10.8 °C 30.16 in /  1021.2 hPa Calm   7.0 mph /  11.3 km/h 79 % 0.00 in /  0 mm
11:01 57.9 °F /  14.4 °C 51.4 °F /  10.8 °C 30.16 in /  1021.2 hPa ESE 8.0 mph /  12.9 km/h 8.0 mph /  12.9 km/h 79 % 0.00 in /  0 mm
11:06 57.9 °F /  14.4 °C 51.4 °F /  10.8 °C 30.16 in /  1021.2 hPa East 1.0 mph /  1.6 km/h 9.0 mph /  14.5 km/h 79 % 0.00 in /  0 mm
11:11 58.3 °F /  14.6 °C 51.8 °F /  11 °C 30.15 in /  1020.9 hPa SE 2.0 mph /  3.2 km/h 9.0 mph /  14.5 km/h 79 % 0.00 in /  0 mm
11:16 58.5 °F /  14.7 °C 52.0 °F /  11.1 °C 30.15 in /  1020.9 hPa SE 2.0 mph /  3.2 km/h 9.0 mph /  14.5 km/h 79 % 0.00 in /  0 mm
11:21 58.8 °F /  14.9 °C 52.0 °F /  11.1 °C 30.14 in /  1020.5 hPa SE 3.0 mph /  4.8 km/h 8.0 mph /  12.9 km/h 78 % 0.00 in /  0 mm
11:26 58.8 °F /  14.9 °C 52.0 °F /  11.1 °C 30.14 in /  1020.5 hPa East 5.0 mph /  8 km/h 12.0 mph /  19.3 km/h 78 % 0.00 in /  0 mm
11:31 58.8 °F /  14.9 °C 52.3 °F /  11.3 °C 30.14 in /  1020.5 hPa SE 2.0 mph /  3.2 km/h 12.0 mph /  19.3 km/h 79 % 0.00 in /  0 mm
11:36 58.8 °F /  14.9 °C 52.0 °F /  11.1 °C 30.14 in /  1020.5 hPa ESE 2.0 mph /  3.2 km/h 12.0 mph /  19.3 km/h 78 % 0.00 in /  0 mm
11:41 58.8 °F /  14.9 °C 52.0 °F /  11.1 °C 30.14 in /  1020.5 hPa East 2.0 mph /  3.2 km/h 9.0 mph /  14.5 km/h 78 % 0.00 in /  0 mm
11:46 58.8 °F /  14.9 °C 52.3 °F /  11.3 °C 30.14 in /  1020.5 hPa SE 8.0 mph /  12.9 km/h 9.0 mph /  14.5 km/h 79 % 0.00 in /  0 mm
11:51 58.8 °F /  14.9 °C 52.3 °F /  11.3 °C 30.14 in /  1020.5 hPa ESE 3.0 mph /  4.8 km/h 11.0 mph /  17.7 km/h 79 % 0.00 in /  0 mm
11:56 58.8 °F /  14.9 °C 52.7 °F /  11.5 °C 30.13 in /  1020.2 hPa ESE 7.0 mph /  11.3 km/h 11.0 mph /  17.7 km/h 80 % 0.00 in /  0 mm
12:01 58.8 °F /  14.9 °C 52.3 °F /  11.3 °C 30.13 in /  1020.2 hPa SE 6.0 mph /  9.7 km/h 11.0 mph /  17.7 km/h 79 % 0.00 in /  0 mm
12:06 58.8 °F /  14.9 °C 52.7 °F /  11.5 °C 30.13 in /  1020.2 hPa East 6.0 mph /  9.7 km/h 10.0 mph /  16.1 km/h 80 % 0.00 in /  0 mm
12:11 58.6 °F /  14.8 °C 52.5 °F /  11.4 °C 30.13 in /  1020.2 hPa Calm   10.0 mph /  16.1 km/h 80 % 0.00 in /  0 mm
12:16 58.8 °F /  14.9 °C 52.7 °F /  11.5 °C 30.12 in /  1019.9 hPa SSW 4.0 mph /  6.4 km/h 10.0 mph /  16.1 km/h 80 % 0.00 in /  0 mm
12:21 59.0 °F /  15 °C 52.5 °F /  11.4 °C 30.12 in /  1019.9 hPa ESE 3.0 mph /  4.8 km/h 8.0 mph /  12.9 km/h 79 % 0.00 in /  0 mm
12:26 59.2 °F /  15.1 °C 52.7 °F /  11.5 °C 30.12 in /  1019.9 hPa ESE 5.0 mph /  8 km/h 8.0 mph /  12.9 km/h 79 % 0.00 in /  0 mm
12:31 59.4 °F /  15.2 °C 52.9 °F /  11.6 °C 30.12 in /  1019.9 hPa SSE 4.0 mph /  6.4 km/h 8.0 mph /  12.9 km/h 79 % 0.00 in /  0 mm
12:36 59.5 °F /  15.3 °C 53.1 °F /  11.7 °C 30.11 in /  1019.5 hPa East 1.0 mph /  1.6 km/h 8.0 mph /  12.9 km/h 79 % 0.00 in /  0 mm
12:41 59.7 °F /  15.4 °C 53.2 °F /  11.8 °C 30.11 in /  1019.5 hPa SSE 2.0 mph /  3.2 km/h 8.0 mph /  12.9 km/h 79 % 0.00 in /  0 mm
12:46 59.9 °F /  15.5 °C 53.4 °F /  11.9 °C 30.11 in /  1019.5 hPa ENE 2.0 mph /  3.2 km/h 8.0 mph /  12.9 km/h 79 % 0.00 in /  0 mm
12:51 59.7 °F /  15.4 °C 53.2 °F /  11.8 °C 30.11 in /  1019.5 hPa Calm   7.0 mph /  11.3 km/h 79 % 0.00 in /  0 mm
12:56 59.7 °F /  15.4 °C 53.2 °F /  11.8 °C 30.11 in /  1019.5 hPa ESE 2.0 mph /  3.2 km/h 7.0 mph /  11.3 km/h 79 % 0.00 in /  0 mm
13:01 59.9 °F /  15.5 °C 53.4 °F /  11.9 °C 30.10 in /  1019.2 hPa South 4.0 mph /  6.4 km/h 7.0 mph /  11.3 km/h 79 % 0.00 in /  0 mm
13:06 59.9 °F /  15.5 °C 53.8 °F /  12.1 °C 30.10 in /  1019.2 hPa Calm   6.0 mph /  9.7 km/h 80 % 0.00 in /  0 mm
13:11 60.1 °F /  15.6 °C 53.6 °F /  12 °C 30.09 in /  1018.8 hPa SE 5.0 mph /  8 km/h 6.0 mph /  9.7 km/h 79 % 0.00 in /  0 mm
13:16 59.9 °F /  15.5 °C 53.4 °F /  11.9 °C 30.09 in /  1018.8 hPa South 2.0 mph /  3.2 km/h 6.0 mph /  9.7 km/h 79 % 0.00 in /  0 mm
13:21 59.7 °F /  15.4 °C 53.6 °F /  12 °C 30.09 in /  1018.8 hPa SE 2.0 mph /  3.2 km/h 7.0 mph /  11.3 km/h 80 % 0.00 in /  0 mm
13:26 59.9 °F /  15.5 °C 53.8 °F /  12.1 °C 30.08 in /  1018.5 hPa SE 3.0 mph /  4.8 km/h 7.0 mph /  11.3 km/h 80 % 0.00 in /  0 mm
13:31 59.9 °F /  15.5 °C 53.8 °F /  12.1 °C 30.08 in /  1018.5 hPa SE 2.0 mph /  3.2 km/h 7.0 mph /  11.3 km/h 80 % 0.00 in /  0 mm
13:36 60.1 °F /  15.6 °C 54.0 °F /  12.2 °C 30.08 in /  1018.5 hPa ESE 2.0 mph /  3.2 km/h 7.0 mph /  11.3 km/h 80 % 0.00 in /  0 mm
13:41 60.1 °F /  15.6 °C 54.0 °F /  12.2 °C 30.08 in /  1018.5 hPa ESE 5.0 mph /  8 km/h 8.0 mph /  12.9 km/h 80 % 0.00 in /  0 mm
13:46 60.3 °F /  15.7 °C 54.1 °F /  12.3 °C 30.08 in /  1018.5 hPa SSE 1.0 mph /  1.6 km/h 8.0 mph /  12.9 km/h 80 % 0.00 in /  0 mm
13:51 60.4 °F /  15.8 °C 54.3 °F /  12.4 °C 30.08 in /  1018.5 hPa ENE 3.0 mph /  4.8 km/h 8.0 mph /  12.9 km/h 80 % 0.00 in /  0 mm
13:57 60.4 °F /  15.8 °C 54.3 °F /  12.4 °C 30.08 in /  1018.5 hPa SE 4.0 mph /  6.4 km/h 6.0 mph /  9.7 km/h 80 % 0.00 in /  0 mm
14:02 60.6 °F /  15.9 °C 54.5 °F /  12.5 °C 30.08 in /  1018.5 hPa ESE 2.0 mph /  3.2 km/h 7.0 mph /  11.3 km/h 80 % 0.00 in /  0 mm
14:07 60.4 °F /  15.8 °C 54.0 °F /  12.2 °C 30.08 in /  1018.5 hPa ESE 3.0 mph /  4.8 km/h 7.0 mph /  11.3 km/h 79 % 0.00 in /  0 mm
14:12 60.4 °F /  15.8 °C 54.3 °F /  12.4 °C 30.08 in /  1018.5 hPa SE 4.0 mph /  6.4 km/h 7.0 mph /  11.3 km/h 80 % 0.00 in /  0 mm
14:17 60.3 °F /  15.7 °C 54.1 °F /  12.3 °C 30.07 in /  1018.2 hPa Calm   6.0 mph /  9.7 km/h 80 % 0.00 in /  0 mm
14:22 60.3 °F /  15.7 °C 54.1 °F /  12.3 °C 30.07 in /  1018.2 hPa ESE 2.0 mph /  3.2 km/h 6.0 mph /  9.7 km/h 80 % 0.00 in /  0 mm
14:27 60.3 °F /  15.7 °C 54.1 °F /  12.3 °C 30.07 in /  1018.2 hPa Calm   6.0 mph /  9.7 km/h 80 % 0.00 in /  0 mm
14:32 60.4 °F /  15.8 °C 54.3 °F /  12.4 °C 30.07 in /  1018.2 hPa SE 4.0 mph /  6.4 km/h 5.0 mph /  8 km/h 80 % 0.00 in /  0 mm
14:37 60.4 °F /  15.8 °C 54.3 °F /  12.4 °C 30.07 in /  1018.2 hPa East 5.0 mph /  8 km/h 8.0 mph /  12.9 km/h 80 % 0.00 in /  0 mm
14:42 60.3 °F /  15.7 °C 54.3 °F /  12.4 °C 30.06 in /  1017.8 hPa ESE 2.0 mph /  3.2 km/h 8.0 mph /  12.9 km/h 81 % 0.00 in /  0 mm
14:47 60.6 °F /  15.9 °C 54.5 °F /  12.5 °C 30.06 in /  1017.8 hPa Calm   8.0 mph /  12.9 km/h 80 % 0.00 in /  0 mm
14:52 60.6 °F /  15.9 °C 54.5 °F /  12.5 °C 30.06 in /  1017.8 hPa SSE 5.0 mph /  8 km/h 8.0 mph /  12.9 km/h 80 % 0.00 in /  0 mm
14:57 60.6 °F /  15.9 °C 54.7 °F /  12.6 °C 30.06 in /  1017.8 hPa SSE 3.0 mph /  4.8 km/h 7.0 mph /  11.3 km/h 81 % 0.00 in /  0 mm
15:02 60.8 °F /  16 °C 54.9 °F /  12.7 °C 30.06 in /  1017.8 hPa SSE 3.0 mph /  4.8 km/h 7.0 mph /  11.3 km/h 81 % 0.00 in /  0 mm
15:07 60.8 °F /  16 °C 54.9 °F /  12.7 °C 30.07 in /  1018.2 hPa SE 1.0 mph /  1.6 km/h 7.0 mph /  11.3 km/h 81 % 0.00 in /  0 mm
15:12 60.8 °F /  16 °C 55.2 °F /  12.9 °C 30.07 in /  1018.2 hPa SE 3.0 mph /  4.8 km/h 7.0 mph /  11.3 km/h 82 % 0.00 in /  0 mm
15:17 60.6 °F /  15.9 °C 55.0 °F /  12.8 °C 30.07 in /  1018.2 hPa South 3.0 mph /  4.8 km/h 7.0 mph /  11.3 km/h 82 % 0.00 in /  0 mm
15:22 60.6 °F /  15.9 °C 55.0 °F /  12.8 °C 30.07 in /  1018.2 hPa Calm   7.0 mph /  11.3 km/h 82 % 0.00 in /  0 mm
15:27 60.6 °F /  15.9 °C 54.7 °F /  12.6 °C 30.07 in /  1018.2 hPa ENE 1.0 mph /  1.6 km/h 6.0 mph /  9.7 km/h 81 % 0.00 in /  0 mm
15:32 60.4 °F /  15.8 °C 54.9 °F /  12.7 °C 30.06 in /  1017.8 hPa SE 1.0 mph /  1.6 km/h 6.0 mph /  9.7 km/h 82 % 0.00 in /  0 mm
15:37 60.6 °F /  15.9 °C 55.0 °F /  12.8 °C 30.07 in /  1018.2 hPa ENE 1.0 mph /  1.6 km/h 6.0 mph /  9.7 km/h 82 % 0.00 in /  0 mm
15:42 60.6 °F /  15.9 °C 55.0 °F /  12.8 °C 30.06 in /  1017.8 hPa SSE 2.0 mph /  3.2 km/h 6.0 mph /  9.7 km/h 82 % 0.00 in /  0 mm
15:47 60.6 °F /  15.9 °C 55.0 °F /  12.8 °C 30.06 in /  1017.8 hPa Calm   6.0 mph /  9.7 km/h 82 % 0.00 in /  0 mm
15:52 60.6 °F /  15.9 °C 55.4 °F /  13 °C 30.06 in /  1017.8 hPa SSE 1.0 mph /  1.6 km/h 6.0 mph /  9.7 km/h 83 % 0.00 in /  0 mm
15:57 60.6 °F /  15.9 °C 55.4 °F /  13 °C 30.06 in /  1017.8 hPa ESE 2.0 mph /  3.2 km/h 6.0 mph /  9.7 km/h 83 % 0.00 in /  0 mm
16:02 60.6 °F /  15.9 °C 55.4 °F /  13 °C 30.06 in /  1017.8 hPa ESE 2.0 mph /  3.2 km/h 7.0 mph /  11.3 km/h 83 % 0.00 in /  0 mm
16:07 60.6 °F /  15.9 °C 55.4 °F /  13 °C 30.06 in /  1017.8 hPa SE 4.0 mph /  6.4 km/h 7.0 mph /  11.3 km/h 83 % 0.00 in /  0 mm
16:12 60.6 °F /  15.9 °C 55.8 °F /  13.2 °C 30.06 in /  1017.8 hPa ENE 3.0 mph /  4.8 km/h 7.0 mph /  11.3 km/h 84 % 0.00 in /  0 mm
16:17 60.6 °F /  15.9 °C 55.8 °F /  13.2 °C 30.06 in /  1017.8 hPa South 2.0 mph /  3.2 km/h 5.0 mph /  8 km/h 84 % 0.00 in /  0 mm
16:22 60.6 °F /  15.9 °C 55.8 °F /  13.2 °C 30.06 in /  1017.8 hPa SE 3.0 mph /  4.8 km/h 5.0 mph /  8 km/h 84 % 0.00 in /  0 mm
16:27 60.8 °F /  16 °C 55.9 °F /  13.3 °C 30.06 in /  1017.8 hPa ESE 2.0 mph /  3.2 km/h 5.0 mph /  8 km/h 84 % 0.00 in /  0 mm
16:32 61.0 °F /  16.1 °C 56.1 °F /  13.4 °C 30.05 in /  1017.5 hPa SE 2.0 mph /  3.2 km/h 5.0 mph /  8 km/h 84 % 0.00 in /  0 mm
16:37 60.6 °F /  15.9 °C 55.8 °F /  13.2 °C 30.05 in /  1017.5 hPa ESE 3.0 mph /  4.8 km/h 7.0 mph /  11.3 km/h 84 % 0.00 in /  0 mm
16:42 60.4 °F /  15.8 °C 55.9 °F /  13.3 °C 30.06 in /  1017.8 hPa East 2.0 mph /  3.2 km/h 7.0 mph /  11.3 km/h 85 % 0.00 in /  0 mm
16:47 60.3 °F /  15.7 °C 56.1 °F /  13.4 °C 30.06 in /  1017.8 hPa East 2.0 mph /  3.2 km/h 7.0 mph /  11.3 km/h 86 % 0.00 in /  0 mm
16:52 60.1 °F /  15.6 °C 56.1 °F /  13.4 °C 30.06 in /  1017.8 hPa SE 2.0 mph /  3.2 km/h 8.0 mph /  12.9 km/h 87 % 0.00 in /  0 mm
16:57 59.9 °F /  15.5 °C 55.9 °F /  13.3 °C 30.05 in /  1017.5 hPa SE 2.0 mph /  3.2 km/h 8.0 mph /  12.9 km/h 87 % 0.00 in /  0 mm
17:02 59.7 °F /  15.4 °C 56.1 °F /  13.4 °C 30.05 in /  1017.5 hPa ESE 1.0 mph /  1.6 km/h 8.0 mph /  12.9 km/h 88 % 0.00 in /  0 mm
17:07 59.7 °F /  15.4 °C 56.1 °F /  13.4 °C 30.05 in /  1017.5 hPa SSE 3.0 mph /  4.8 km/h 6.0 mph /  9.7 km/h 88 % 0.00 in /  0 mm
17:12 59.7 °F /  15.4 °C 56.1 °F /  13.4 °C 30.05 in /  1017.5 hPa ESE 3.0 mph /  4.8 km/h 7.0 mph /  11.3 km/h 88 % 0.00 in /  0 mm
17:17 59.7 °F /  15.4 °C 56.1 °F /  13.4 °C 30.05 in /  1017.5 hPa SE 5.0 mph /  8 km/h 7.0 mph /  11.3 km/h 88 % 0.00 in /  0 mm
17:22 59.7 °F /  15.4 °C 56.1 °F /  13.4 °C 30.05 in /  1017.5 hPa SE 2.0 mph /  3.2 km/h 7.0 mph /  11.3 km/h 88 % 0.00 in /  0 mm
17:27 59.7 °F /  15.4 °C 55.8 °F /  13.2 °C 30.05 in /  1017.5 hPa ESE 2.0 mph /  3.2 km/h 7.0 mph /  11.3 km/h 87 % 0.00 in /  0 mm
17:33 59.7 °F /  15.4 °C 55.8 °F /  13.2 °C 30.05 in /  1017.5 hPa SSE 1.0 mph /  1.6 km/h 7.0 mph /  11.3 km/h 87 % 0.00 in /  0 mm
17:38 59.7 °F /  15.4 °C 55.8 °F /  13.2 °C 30.05 in /  1017.5 hPa SSE 3.0 mph /  4.8 km/h 5.0 mph /  8 km/h 87 % 0.00 in /  0 mm
17:43 59.7 °F /  15.4 °C 55.8 °F /  13.2 °C 30.05 in /  1017.5 hPa East 2.0 mph /  3.2 km/h 5.0 mph /  8 km/h 87 % 0.00 in /  0 mm
17:48 59.7 °F /  15.4 °C 55.8 °F /  13.2 °C 30.05 in /  1017.5 hPa SE 3.0 mph /  4.8 km/h 4.0 mph /  6.4 km/h 87 % 0.00 in /  0 mm
17:53 59.7 °F /  15.4 °C 55.6 °F /  13.1 °C 30.05 in /  1017.5 hPa ESE 2.0 mph /  3.2 km/h 4.0 mph /  6.4 km/h 86 % 0.00 in /  0 mm
17:58 59.7 °F /  15.4 °C 55.6 °F /  13.1 °C 30.05 in /  1017.5 hPa SSE 1.0 mph /  1.6 km/h 3.0 mph /  4.8 km/h 86 % 0.00 in /  0 mm
18:03 59.7 °F /  15.4 °C 55.6 °F /  13.1 °C 30.05 in /  1017.5 hPa ESE 1.0 mph /  1.6 km/h 5.0 mph /  8 km/h 86 % 0.00 in /  0 mm
18:08 59.5 °F /  15.3 °C 55.4 °F /  13 °C 30.05 in /  1017.5 hPa ESE 1.0 mph /  1.6 km/h 5.0 mph /  8 km/h 86 % 0.00 in /  0 mm
18:13 59.5 °F /  15.3 °C 55.4 °F /  13 °C 30.05 in /  1017.5 hPa Calm   5.0 mph /  8 km/h 86 % 0.00 in /  0 mm
18:18 59.5 °F /  15.3 °C 55.4 °F /  13 °C 30.05 in /  1017.5 hPa Calm   2.0 mph /  3.2 km/h 86 % 0.00 in /  0 mm
18:23 59.5 °F /  15.3 °C 55.4 °F /  13 °C 30.05 in /  1017.5 hPa Calm   2.0 mph /  3.2 km/h 86 % 0.00 in /  0 mm
18:28 59.5 °F /  15.3 °C 55.4 °F /  13 °C 30.04 in /  1017.2 hPa Calm   3.0 mph /  4.8 km/h 86 % 0.00 in /  0 mm
18:33 59.4 °F /  15.2 °C 55.4 °F /  13 °C 30.04 in /  1017.2 hPa SE 2.0 mph /  3.2 km/h 3.0 mph /  4.8 km/h 87 % 0.00 in /  0 mm
18:38 59.4 °F /  15.2 °C 55.4 °F /  13 °C 30.04 in /  1017.2 hPa East 1.0 mph /  1.6 km/h 5.0 mph /  8 km/h 87 % 0.00 in /  0 mm
18:43 59.4 °F /  15.2 °C 55.8 °F /  13.2 °C 30.04 in /  1017.2 hPa SE 1.0 mph /  1.6 km/h 6.0 mph /  9.7 km/h 88 % 0.00 in /  0 mm
18:48 59.2 °F /  15.1 °C 55.9 °F /  13.3 °C 30.04 in /  1017.2 hPa ENE 4.0 mph /  6.4 km/h 6.0 mph /  9.7 km/h 89 % 0.00 in /  0 mm
18:53 58.8 °F /  14.9 °C 55.6 °F /  13.1 °C 30.04 in /  1017.2 hPa ESE 3.0 mph /  4.8 km/h 6.0 mph /  9.7 km/h 89 % 0.00 in /  0 mm
18:58 58.6 °F /  14.8 °C 55.8 °F /  13.2 °C 30.04 in /  1017.2 hPa SSE 2.0 mph /  3.2 km/h 6.0 mph /  9.7 km/h 90 % 0.00 in /  0 mm
19:03 58.5 °F /  14.7 °C 55.6 °F /  13.1 °C 30.04 in /  1017.2 hPa ENE 2.0 mph /  3.2 km/h 6.0 mph /  9.7 km/h 90 % 0.00 in /  0 mm
19:08 58.5 °F /  14.7 °C 55.8 °F /  13.2 °C 30.04 in /  1017.2 hPa SSE 1.0 mph /  1.6 km/h 6.0 mph /  9.7 km/h 91 % 0.00 in /  0 mm
19:13 58.3 °F /  14.6 °C 55.6 °F /  13.1 °C 30.04 in /  1017.2 hPa ESE 1.0 mph /  1.6 km/h 6.0 mph /  9.7 km/h 91 % 0.00 in /  0 mm
19:18 58.3 °F /  14.6 °C 55.6 °F /  13.1 °C 30.04 in /  1017.2 hPa ESE 5.0 mph /  8 km/h 6.0 mph /  9.7 km/h 91 % 0.00 in /  0 mm
19:23 58.3 °F /  14.6 °C 55.6 °F /  13.1 °C 30.04 in /  1017.2 hPa SSE 4.0 mph /  6.4 km/h 6.0 mph /  9.7 km/h 91 % 0.00 in /  0 mm
19:28 58.3 °F /  14.6 °C 55.9 °F /  13.3 °C 30.05 in /  1017.5 hPa East 3.0 mph /  4.8 km/h 6.0 mph /  9.7 km/h 92 % 0.00 in /  0 mm
19:33 58.3 °F /  14.6 °C 55.9 °F /  13.3 °C 30.05 in /  1017.5 hPa SE 2.0 mph /  3.2 km/h 6.0 mph /  9.7 km/h 92 % 0.00 in /  0 mm
19:38 58.3 °F /  14.6 °C 55.9 °F /  13.3 °C 30.05 in /  1017.5 hPa SE 2.0 mph /  3.2 km/h 7.0 mph /  11.3 km/h 92 % 0.00 in /  0 mm
19:43 58.3 °F /  14.6 °C 55.9 °F /  13.3 °C 30.05 in /  1017.5 hPa East 4.0 mph /  6.4 km/h 7.0 mph /  11.3 km/h 92 % 0.00 in /  0 mm
19:48 58.3 °F /  14.6 °C 55.9 °F /  13.3 °C 30.05 in /  1017.5 hPa SE 4.0 mph /  6.4 km/h 7.0 mph /  11.3 km/h 92 % 0.00 in /  0 mm
19:53 58.1 °F /  14.5 °C 55.8 °F /  13.2 °C 30.05 in /  1017.5 hPa Calm   5.0 mph /  8 km/h 92 % 0.00 in /  0 mm
19:58 57.9 °F /  14.4 °C 55.6 °F /  13.1 °C 30.05 in /  1017.5 hPa SE 1.0 mph /  1.6 km/h 5.0 mph /  8 km/h 92 % 0.00 in /  0 mm
20:03 57.9 °F /  14.4 °C 55.6 °F /  13.1 °C 30.05 in /  1017.5 hPa SE 2.0 mph /  3.2 km/h 4.0 mph /  6.4 km/h 92 % 0.00 in /  0 mm
20:08 57.9 °F /  14.4 °C 55.9 °F /  13.3 °C 30.06 in /  1017.8 hPa SE 3.0 mph /  4.8 km/h 3.0 mph /  4.8 km/h 93 % 0.00 in /  0 mm
20:13 57.9 °F /  14.4 °C 55.9 °F /  13.3 °C 30.05 in /  1017.5 hPa Calm   5.0 mph /  8 km/h 93 % 0.00 in /  0 mm
20:18 57.7 °F /  14.3 °C 55.8 °F /  13.2 °C 30.06 in /  1017.8 hPa East 2.0 mph /  3.2 km/h 5.0 mph /  8 km/h 93 % 0.00 in /  0 mm
20:23 57.7 °F /  14.3 °C 55.8 °F /  13.2 °C 30.06 in /  1017.8 hPa SE 1.0 mph /  1.6 km/h 6.0 mph /  9.7 km/h 93 % 0.00 in /  0 mm
20:28 57.7 °F /  14.3 °C 55.8 °F /  13.2 °C 30.06 in /  1017.8 hPa SE 2.0 mph /  3.2 km/h 6.0 mph /  9.7 km/h 93 % 0.00 in /  0 mm
20:33 57.7 °F /  14.3 °C 55.8 °F /  13.2 °C 30.05 in /  1017.5 hPa ESE 1.0 mph /  1.6 km/h 6.0 mph /  9.7 km/h 93 % 0.00 in /  0 mm
20:38 57.7 °F /  14.3 °C 55.9 °F /  13.3 °C 30.05 in /  1017.5 hPa Calm   4.0 mph /  6.4 km/h 94 % 0.00 in /  0 mm
20:43 57.7 °F /  14.3 °C 55.9 °F /  13.3 °C 30.06 in /  1017.8 hPa SE 2.0 mph /  3.2 km/h 4.0 mph /  6.4 km/h 94 % 0.00 in /  0 mm
20:48 57.7 °F /  14.3 °C 55.9 °F /  13.3 °C 30.06 in /  1017.8 hPa Calm   4.0 mph /  6.4 km/h 94 % 0.00 in /  0 mm
20:53 57.7 °F /  14.3 °C 55.9 °F /  13.3 °C 30.06 in /  1017.8 hPa SE 1.0 mph /  1.6 km/h 4.0 mph /  6.4 km/h 94 % 0.00 in /  0 mm
20:58 57.6 °F /  14.2 °C 55.8 °F /  13.2 °C 30.05 in /  1017.5 hPa SE 1.0 mph /  1.6 km/h 4.0 mph /  6.4 km/h 94 % 0.00 in /  0 mm
21:03 57.6 °F /  14.2 °C 55.8 °F /  13.2 °C 30.06 in /  1017.8 hPa ESE 1.0 mph /  1.6 km/h 4.0 mph /  6.4 km/h 94 % 0.00 in /  0 mm
21:08 57.6 °F /  14.2 °C 55.8 °F /  13.2 °C 30.05 in /  1017.5 hPa SE 4.0 mph /  6.4 km/h 5.0 mph /  8 km/h 94 % 0.00 in /  0 mm
21:13 57.6 °F /  14.2 °C 56.1 °F /  13.4 °C 30.05 in /  1017.5 hPa East 1.0 mph /  1.6 km/h 6.0 mph /  9.7 km/h 95 % 0.00 in /  0 mm
21:18 57.6 °F /  14.2 °C 56.1 °F /  13.4 °C 30.05 in /  1017.5 hPa Calm   6.0 mph /  9.7 km/h 95 % 0.00 in /  0 mm
21:23 57.6 °F /  14.2 °C 56.1 °F /  13.4 °C 30.05 in /  1017.5 hPa East 1.0 mph /  1.6 km/h 6.0 mph /  9.7 km/h 95 % 0.00 in /  0 mm
21:28 57.6 °F /  14.2 °C 56.1 °F /  13.4 °C 30.05 in /  1017.5 hPa SE 3.0 mph /  4.8 km/h 5.0 mph /  8 km/h 95 % 0.00 in /  0 mm
21:33 57.6 °F /  14.2 °C 56.1 °F /  13.4 °C 30.05 in /  1017.5 hPa Calm   4.0 mph /  6.4 km/h 95 % 0.00 in /  0 mm
21:38 57.6 °F /  14.2 °C 56.1 °F /  13.4 °C 30.05 in /  1017.5 hPa ESE 3.0 mph /  4.8 km/h 5.0 mph /  8 km/h 95 % 0.00 in /  0 mm
21:43 57.4 °F /  14.1 °C 55.9 °F /  13.3 °C 30.06 in /  1017.8 hPa ESE 1.0 mph /  1.6 km/h 5.0 mph /  8 km/h 95 % 0.00 in /  0 mm
21:48 57.4 °F /  14.1 °C 56.3 °F /  13.5 °C 30.06 in /  1017.8 hPa East 2.0 mph /  3.2 km/h 5.0 mph /  8 km/h 96 % 0.00 in /  0 mm
21:53 57.4 °F /  14.1 °C 56.3 °F /  13.5 °C 30.06 in /  1017.8 hPa Calm   5.0 mph /  8 km/h 96 % 0.00 in /  0 mm
21:58 57.4 °F /  14.1 °C 56.3 °F /  13.5 °C 30.06 in /  1017.8 hPa Calm   5.0 mph /  8 km/h 96 % 0.00 in /  0 mm
22:03 57.4 °F /  14.1 °C 56.3 °F /  13.5 °C 30.06 in /  1017.8 hPa East 1.0 mph /  1.6 km/h 5.0 mph /  8 km/h 96 % 0.00 in /  0 mm
22:08 57.2 °F /  14 °C 56.1 °F /  13.4 °C 30.06 in /  1017.8 hPa Calm   4.0 mph /  6.4 km/h 96 % 0.00 in /  0 mm
22:13 57.2 °F /  14 °C 56.1 °F /  13.4 °C 30.07 in /  1018.2 hPa Calm   4.0 mph /  6.4 km/h 96 % 0.00 in /  0 mm
22:18 57.2 °F /  14 °C 56.1 °F /  13.4 °C 30.07 in /  1018.2 hPa North 1.0 mph /  1.6 km/h 4.0 mph /  6.4 km/h 96 % 0.00 in /  0 mm
22:23 57.2 °F /  14 °C 56.1 °F /  13.4 °C 30.07 in /  1018.2 hPa Calm   2.0 mph /  3.2 km/h 96 % 0.00 in /  0 mm
22:28 57.2 °F /  14 °C 56.1 °F /  13.4 °C 30.07 in /  1018.2 hPa Calm   2.0 mph /  3.2 km/h 96 % 0.00 in /  0 mm
22:33 57.2 °F /  14 °C 56.1 °F /  13.4 °C 30.07 in /  1018.2 hPa East 1.0 mph /  1.6 km/h 2.0 mph /  3.2 km/h 96 % 0.00 in /  0 mm
22:38 57.2 °F /  14 °C 56.1 °F /  13.4 °C 30.07 in /  1018.2 hPa NE 1.0 mph /  1.6 km/h 2.0 mph /  3.2 km/h 96 % 0.00 in /  0 mm
22:43 57.4 °F /  14.1 °C 56.3 °F /  13.5 °C 30.08 in /  1018.5 hPa Calm   2.0 mph /  3.2 km/h 96 % 0.00 in /  0 mm
22:48 57.2 °F /  14 °C 56.1 °F /  13.4 °C 30.08 in /  1018.5 hPa ESE 1.0 mph /  1.6 km/h 2.0 mph /  3.2 km/h 96 % 0.00 in /  0 mm
22:53 57.2 °F /  14 °C 56.1 °F /  13.4 °C 30.08 in /  1018.5 hPa Calm   1.0 mph /  1.6 km/h 96 % 0.00 in /  0 mm
22:58 57.2 °F /  14 °C 56.1 °F /  13.4 °C 30.08 in /  1018.5 hPa Calm   2.0 mph /  3.2 km/h 96 % 0.00 in /  0 mm
23:03 57.2 °F /  14 °C 56.1 °F /  13.4 °C 30.08 in /  1018.5 hPa Calm   2.0 mph /  3.2 km/h 96 % 0.00 in /  0 mm
23:09 57.2 °F /  14 °C 56.1 °F /  13.4 °C 30.08 in /  1018.5 hPa Calm   2.0 mph /  3.2 km/h 96 % 0.00 in /  0 mm
23:14 57.2 °F /  14 °C 56.1 °F /  13.4 °C 30.07 in /  1018.2 hPa Calm   1.0 mph /  1.6 km/h 96 % 0.00 in /  0 mm
23:19 57.2 °F /  14 °C 56.1 °F /  13.4 °C 30.08 in /  1018.5 hPa Calm   2.0 mph /  3.2 km/h 96 % 0.00 in /  0 mm
23:24 57.2 °F /  14 °C 56.3 °F /  13.5 °C 30.08 in /  1018.5 hPa Calm   2.0 mph /  3.2 km/h 97 % 0.00 in /  0 mm
23:29 57.2 °F /  14 °C 56.3 °F /  13.5 °C 30.08 in /  1018.5 hPa SE 1.0 mph /  1.6 km/h 2.0 mph /  3.2 km/h 97 % 0.00 in /  0 mm
23:34 57.0 °F /  13.9 °C 56.1 °F /  13.4 °C 30.07 in /  1018.2 hPa East 1.0 mph /  1.6 km/h 2.0 mph /  3.2 km/h 97 % 0.00 in /  0 mm
23:39 57.0 °F /  13.9 °C 56.1 °F /  13.4 °C 30.07 in /  1018.2 hPa Calm   3.0 mph /  4.8 km/h 97 % 0.00 in /  0 mm
23:44 57.0 °F /  13.9 °C 56.1 °F /  13.4 °C 30.07 in /  1018.2 hPa ESE 1.0 mph /  1.6 km/h 3.0 mph /  4.8 km/h 97 % 0.00 in /  0 mm
23:49 57.0 °F /  13.9 °C 56.1 °F /  13.4 °C 30.07 in /  1018.2 hPa ESE 1.0 mph /  1.6 km/h 3.0 mph /  4.8 km/h 97 % 0.00 in /  0 mm
23:54 57.0 °F /  13.9 °C 56.1 °F /  13.4 °C 30.07 in /  1018.2 hPa ESE 1.0 mph /  1.6 km/h 2.0 mph /  3.2 km/h 97 % 0.00 in /  0 mm
23:59 57.0 °F /  13.9 °C 56.1 °F /  13.4 °C 30.07 in /  1018.2 hPa ESE 2.0 mph /  3.2 km/h 4.0 mph /  6.4 km/h 97 % 0.00 in /  0 mm
Spring, Texas: Villages of Bridgestone
Compliments of Weather Underground - 3 mb

Script developed by  Jim McMurry - jmcmurry@mwt.net Adapted for the template by  Wim van der Kuil - Leuven-Template.eu

You find our weather info also at:

UK Metoffice

WeatherCloud

Weather Underground

Mid-South Weather Network

AWEKAS

Citizen Weather Observer Program (CWOP)

HAMweather, WeatherForYou, PWS Weather

Equipment we use:

Weather-station
Davis Vantage Vue

Weather-program
Meteohub

Weather-server
Debian 7.9 x86 (Guest)

Provider
DreamHost

Davis Vantage Vue

Meteohub

Debian 7.9 x86 (Guest)

DreamHost